sensor_id;sensor_type;location;lat;lon;timestamp;temperature;humidity
5459;DHT22;2752;49.992;8.422;2023-02-13T00:00:04;6.80;77.10
5459;DHT22;2752;49.992;8.422;2023-02-13T00:02:31;6.70;76.50
5459;DHT22;2752;49.992;8.422;2023-02-13T00:04:58;6.70;77.10
5459;DHT22;2752;49.992;8.422;2023-02-13T00:07:24;6.70;76.80
5459;DHT22;2752;49.992;8.422;2023-02-13T00:09:51;6.60;77.40
5459;DHT22;2752;49.992;8.422;2023-02-13T00:12:18;6.60;77.60
5459;DHT22;2752;49.992;8.422;2023-02-13T00:14:44;6.50;78.30
5459;DHT22;2752;49.992;8.422;2023-02-13T00:17:12;6.50;79.00
5459;DHT22;2752;49.992;8.422;2023-02-13T00:19:39;6.50;79.80
5459;DHT22;2752;49.992;8.422;2023-02-13T00:22:05;6.50;80.30
5459;DHT22;2752;49.992;8.422;2023-02-13T00:24:32;6.40;80.60
5459;DHT22;2752;49.992;8.422;2023-02-13T00:26:59;6.40;80.90
5459;DHT22;2752;49.992;8.422;2023-02-13T00:29:25;6.40;80.70
5459;DHT22;2752;49.992;8.422;2023-02-13T00:31:52;6.30;81.20
5459;DHT22;2752;49.992;8.422;2023-02-13T00:34:20;6.30;81.90
5459;DHT22;2752;49.992;8.422;2023-02-13T00:36:46;6.30;82.00
5459;DHT22;2752;49.992;8.422;2023-02-13T00:39:13;6.20;82.40
5459;DHT22;2752;49.992;8.422;2023-02-13T00:41:40;6.20;83.10
5459;DHT22;2752;49.992;8.422;2023-02-13T00:44:08;6.20;83.10
5459;DHT22;2752;49.992;8.422;2023-02-13T00:46:35;6.20;83.70
5459;DHT22;2752;49.992;8.422;2023-02-13T00:49:03;6.20;83.80
5459;DHT22;2752;49.992;8.422;2023-02-13T00:51:31;6.20;83.80
5459;DHT22;2752;49.992;8.422;2023-02-13T00:53:57;6.20;83.40
5459;DHT22;2752;49.992;8.422;2023-02-13T00:56:24;6.20;83.90
5459;DHT22;2752;49.992;8.422;2023-02-13T00:58:51;6.10;83.20
5459;DHT22;2752;49.992;8.422;2023-02-13T01:01:17;6.10;83.30
5459;DHT22;2752;49.992;8.422;2023-02-13T01:03:44;6.00;84.20
5459;DHT22;2752;49.992;8.422;2023-02-13T01:06:11;6.00;84.10
5459;DHT22;2752;49.992;8.422;2023-02-13T01:08:39;6.00;84.70
5459;DHT22;2752;49.992;8.422;2023-02-13T01:11:06;5.90;84.80
5459;DHT22;2752;49.992;8.422;2023-02-13T01:13:33;5.90;85.60
5459;DHT22;2752;49.992;8.422;2023-02-13T01:15:59;5.90;86.20
5459;DHT22;2752;49.992;8.422;2023-02-13T01:18:26;5.80;86.70
5459;DHT22;2752;49.992;8.422;2023-02-13T01:20:58;5.80;87.10
5459;DHT22;2752;49.992;8.422;2023-02-13T01:23:25;5.80;87.70
5459;DHT22;2752;49.992;8.422;2023-02-13T01:25:55;5.80;87.50
5459;DHT22;2752;49.992;8.422;2023-02-13T01:28:22;5.80;87.90
5459;DHT22;2752;49.992;8.422;2023-02-13T01:30:52;5.70;88.20
5459;DHT22;2752;49.992;8.422;2023-02-13T01:33:19;5.70;89.00
5459;DHT22;2752;49.992;8.422;2023-02-13T01:35:45;5.80;88.60
5459;DHT22;2752;49.992;8.422;2023-02-13T01:38:12;5.70;88.70
5459;DHT22;2752;49.992;8.422;2023-02-13T01:40:44;5.70;88.80
5459;DHT22;2752;49.992;8.422;2023-02-13T01:43:12;5.70;89.00
5459;DHT22;2752;49.992;8.422;2023-02-13T01:45:39;5.70;88.50
5459;DHT22;2752;49.992;8.422;2023-02-13T01:48:07;5.70;89.00
5459;DHT22;2752;49.992;8.422;2023-02-13T01:50:39;5.70;87.40
5459;DHT22;2752;49.992;8.422;2023-02-13T01:53:12;5.60;87.40
5459;DHT22;2752;49.992;8.422;2023-02-13T01:55:44;5.60;87.30
5459;DHT22;2752;49.992;8.422;2023-02-13T01:58:15;5.60;86.70
5459;DHT22;2752;49.992;8.422;2023-02-13T02:00:44;5.50;86.90
5459;DHT22;2752;49.992;8.422;2023-02-13T02:03:18;5.50;87.10
5459;DHT22;2752;49.992;8.422;2023-02-13T02:05:46;5.40;86.90
5459;DHT22;2752;49.992;8.422;2023-02-13T02:08:15;5.40;87.20
5459;DHT22;2752;49.992;8.422;2023-02-13T02:10:42;5.40;87.90
5459;DHT22;2752;49.992;8.422;2023-02-13T02:13:11;5.40;88.10
5459;DHT22;2752;49.992;8.422;2023-02-13T02:15:40;5.40;87.30
5459;DHT22;2752;49.992;8.422;2023-02-13T02:18:13;5.30;87.60
5459;DHT22;2752;49.992;8.422;2023-02-13T02:24:02;5.30;87.50
5459;DHT22;2752;49.992;8.422;2023-02-13T02:27:04;5.20;87.40
5459;DHT22;2752;49.992;8.422;2023-02-13T02:32:47;5.20;88.30
5459;DHT22;2752;49.992;8.422;2023-02-13T02:35:23;5.10;88.60
5459;DHT22;2752;49.992;8.422;2023-02-13T02:38:07;5.10;89.10
5459;DHT22;2752;49.992;8.422;2023-02-13T02:40:45;5.10;89.50
5459;DHT22;2752;49.992;8.422;2023-02-13T02:43:25;5.10;89.50
5459;DHT22;2752;49.992;8.422;2023-02-13T02:45:56;5.00;89.30
5459;DHT22;2752;49.992;8.422;2023-02-13T02:48:31;5.00;89.40
5459;DHT22;2752;49.992;8.422;2023-02-13T02:51:21;5.00;89.50
5459;DHT22;2752;49.992;8.422;2023-02-13T02:54:02;4.90;89.50
5459;DHT22;2752;49.992;8.422;2023-02-13T02:56:51;4.90;90.80
5459;DHT22;2752;49.992;8.422;2023-02-13T02:59:20;4.80;90.60
5459;DHT22;2752;49.992;8.422;2023-02-13T03:02:05;4.80;90.80
5459;DHT22;2752;49.992;8.422;2023-02-13T03:04:53;4.80;91.30
5459;DHT22;2752;49.992;8.422;2023-02-13T03:07:41;4.70;91.60
5459;DHT22;2752;49.992;8.422;2023-02-13T03:10:10;4.70;91.80
5459;DHT22;2752;49.992;8.422;2023-02-13T03:13:00;4.60;92.10
5459;DHT22;2752;49.992;8.422;2023-02-13T03:15:47;4.60;92.50
5459;DHT22;2752;49.992;8.422;2023-02-13T03:18:37;4.60;92.40
5459;DHT22;2752;49.992;8.422;2023-02-13T03:21:34;4.50;92.40
5459;DHT22;2752;49.992;8.422;2023-02-13T03:24:24;4.40;92.10
5459;DHT22;2752;49.992;8.422;2023-02-13T03:26:58;4.40;92.90
5459;DHT22;2752;49.992;8.422;2023-02-13T03:29:42;4.40;93.40
5459;DHT22;2752;49.992;8.422;2023-02-13T03:32:31;4.40;93.10
5459;DHT22;2752;49.992;8.422;2023-02-13T03:35:12;4.30;93.70
5459;DHT22;2752;49.992;8.422;2023-02-13T03:38:03;4.30;94.20
5459;DHT22;2752;49.992;8.422;2023-02-13T03:40:35;4.30;94.90
5459;DHT22;2752;49.992;8.422;2023-02-13T03:43:28;4.40;95.00
5459;DHT22;2752;49.992;8.422;2023-02-13T03:45:59;4.30;95.50
5459;DHT22;2752;49.992;8.422;2023-02-13T03:48:29;4.30;95.20
5459;DHT22;2752;49.992;8.422;2023-02-13T03:51:18;4.30;95.70
5459;DHT22;2752;49.992;8.422;2023-02-13T03:53:50;4.30;96.10
5459;DHT22;2752;49.992;8.422;2023-02-13T03:56:19;4.30;96.20
5459;DHT22;2752;49.992;8.422;2023-02-13T03:59:07;4.30;96.30
5459;DHT22;2752;49.992;8.422;2023-02-13T04:01:49;4.30;96.90
5459;DHT22;2752;49.992;8.422;2023-02-13T04:04:22;4.30;97.00
5459;DHT22;2752;49.992;8.422;2023-02-13T04:06:53;4.30;96.80
5459;DHT22;2752;49.992;8.422;2023-02-13T04:09:22;4.20;96.50
5459;DHT22;2752;49.992;8.422;2023-02-13T04:11:55;4.20;96.70
5459;DHT22;2752;49.992;8.422;2023-02-13T04:14:26;4.10;96.60
5459;DHT22;2752;49.992;8.422;2023-02-13T04:16:57;4.00;96.70
5459;DHT22;2752;49.992;8.422;2023-02-13T04:19:27;4.00;97.00
5459;DHT22;2752;49.992;8.422;2023-02-13T04:21:56;4.00;96.80
5459;DHT22;2752;49.992;8.422;2023-02-13T04:24:24;4.00;96.90
5459;DHT22;2752;49.992;8.422;2023-02-13T04:26:52;3.90;97.20
5459;DHT22;2752;49.992;8.422;2023-02-13T04:29:19;3.90;97.10
5459;DHT22;2752;49.992;8.422;2023-02-13T04:31:46;3.80;97.10
5459;DHT22;2752;49.992;8.422;2023-02-13T04:34:12;3.80;97.40
5459;DHT22;2752;49.992;8.422;2023-02-13T04:36:39;3.80;97.80
5459;DHT22;2752;49.992;8.422;2023-02-13T04:39:06;3.80;98.10
5459;DHT22;2752;49.992;8.422;2023-02-13T04:41:34;3.80;98.40
5459;DHT22;2752;49.992;8.422;2023-02-13T04:44:00;3.80;98.10
5459;DHT22;2752;49.992;8.422;2023-02-13T04:46:27;3.70;98.10
5459;DHT22;2752;49.992;8.422;2023-02-13T04:48:54;3.70;98.00
5459;DHT22;2752;49.992;8.422;2023-02-13T04:51:20;3.60;98.20
5459;DHT22;2752;49.992;8.422;2023-02-13T04:53:47;3.60;98.30
5459;DHT22;2752;49.992;8.422;2023-02-13T04:56:13;3.50;98.00
5459;DHT22;2752;49.992;8.422;2023-02-13T04:58:41;3.50;98.40
5459;DHT22;2752;49.992;8.422;2023-02-13T05:01:11;3.50;98.60
5459;DHT22;2752;49.992;8.422;2023-02-13T05:03:38;3.50;98.60
5459;DHT22;2752;49.992;8.422;2023-02-13T05:06:05;3.50;98.90
5459;DHT22;2752;49.992;8.422;2023-02-13T05:08:32;3.50;99.00
5459;DHT22;2752;49.992;8.422;2023-02-13T05:10:58;3.40;99.00
5459;DHT22;2752;49.992;8.422;2023-02-13T05:13:25;3.40;99.00
5459;DHT22;2752;49.992;8.422;2023-02-13T05:15:53;3.40;99.30
5459;DHT22;2752;49.992;8.422;2023-02-13T05:18:20;3.30;99.20
5459;DHT22;2752;49.992;8.422;2023-02-13T05:20:46;3.30;99.90
5459;DHT22;2752;49.992;8.422;2023-02-13T05:23:33;3.30;99.90
5459;DHT22;2752;49.992;8.422;2023-02-13T05:25:59;3.40;99.90
5459;DHT22;2752;49.992;8.422;2023-02-13T05:28:26;3.40;99.90
5459;DHT22;2752;49.992;8.422;2023-02-13T05:31:11;3.40;99.90
5459;DHT22;2752;49.992;8.422;2023-02-13T05:33:38;3.40;99.90
5459;DHT22;2752;49.992;8.422;2023-02-13T05:36:06;3.40;99.90
5459;DHT22;2752;49.992;8.422;2023-02-13T05:38:32;3.40;99.90
5459;DHT22;2752;49.992;8.422;2023-02-13T05:40:59;3.30;99.90
5459;DHT22;2752;49.992;8.422;2023-02-13T05:43:26;3.40;99.90
5459;DHT22;2752;49.992;8.422;2023-02-13T05:46:00;3.40;99.90
5459;DHT22;2752;49.992;8.422;2023-02-13T05:48:28;3.40;99.90
5459;DHT22;2752;49.992;8.422;2023-02-13T05:50:55;3.40;99.90
5459;DHT22;2752;49.992;8.422;2023-02-13T05:53:22;3.40;99.90
5459;DHT22;2752;49.992;8.422;2023-02-13T05:55:48;3.40;99.90
5459;DHT22;2752;49.992;8.422;2023-02-13T05:58:16;3.40;99.90
5459;DHT22;2752;49.992;8.422;2023-02-13T06:00:43;3.40;99.90
5459;DHT22;2752;49.992;8.422;2023-02-13T06:03:09;3.40;99.90
5459;DHT22;2752;49.992;8.422;2023-02-13T06:05:37;3.50;99.90
5459;DHT22;2752;49.992;8.422;2023-02-13T06:08:04;3.50;99.90
5459;DHT22;2752;49.992;8.422;2023-02-13T06:10:31;3.50;99.90
5459;DHT22;2752;49.992;8.422;2023-02-13T06:12:57;3.60;99.90
5459;DHT22;2752;49.992;8.422;2023-02-13T06:15:24;3.60;99.90
5459;DHT22;2752;49.992;8.422;2023-02-13T06:17:51;3.60;99.90
5459;DHT22;2752;49.992;8.422;2023-02-13T06:20:18;3.60;99.90
5459;DHT22;2752;49.992;8.422;2023-02-13T06:22:48;3.60;99.90
5459;DHT22;2752;49.992;8.422;2023-02-13T06:25:15;3.60;99.90
5459;DHT22;2752;49.992;8.422;2023-02-13T06:27:41;3.60;99.90
5459;DHT22;2752;49.992;8.422;2023-02-13T06:30:09;3.60;99.90
5459;DHT22;2752;49.992;8.422;2023-02-13T06:32:36;3.50;99.90
5459;DHT22;2752;49.992;8.422;2023-02-13T06:35:02;3.60;99.90
5459;DHT22;2752;49.992;8.422;2023-02-13T06:37:29;3.50;99.90
5459;DHT22;2752;49.992;8.422;2023-02-13T06:39:57;3.60;99.90
5459;DHT22;2752;49.992;8.422;2023-02-13T06:42:24;3.50;99.90
5459;DHT22;2752;49.992;8.422;2023-02-13T06:44:50;3.50;99.90
5459;DHT22;2752;49.992;8.422;2023-02-13T06:47:17;3.40;99.90
5459;DHT22;2752;49.992;8.422;2023-02-13T06:49:44;3.50;99.90
5459;DHT22;2752;49.992;8.422;2023-02-13T06:52:10;3.40;99.90
5459;DHT22;2752;49.992;8.422;2023-02-13T06:54:37;3.50;99.90
5459;DHT22;2752;49.992;8.422;2023-02-13T06:57:05;3.50;99.90
5459;DHT22;2752;49.992;8.422;2023-02-13T06:59:31;3.60;99.90
5459;DHT22;2752;49.992;8.422;2023-02-13T07:01:58;3.60;99.90
5459;DHT22;2752;49.992;8.422;2023-02-13T07:04:26;3.60;99.90
5459;DHT22;2752;49.992;8.422;2023-02-13T07:06:53;3.60;99.90
5459;DHT22;2752;49.992;8.422;2023-02-13T07:09:21;3.70;99.90
5459;DHT22;2752;49.992;8.422;2023-02-13T07:11:48;3.70;99.90
5459;DHT22;2752;49.992;8.422;2023-02-13T07:14:16;3.70;99.90
5459;DHT22;2752;49.992;8.422;2023-02-13T07:16:42;3.70;99.90
5459;DHT22;2752;49.992;8.422;2023-02-13T07:19:09;3.80;99.90
5459;DHT22;2752;49.992;8.422;2023-02-13T07:21:36;3.80;99.90
5459;DHT22;2752;49.992;8.422;2023-02-13T07:24:03;3.80;99.90
5459;DHT22;2752;49.992;8.422;2023-02-13T07:26:29;3.80;99.90
5459;DHT22;2752;49.992;8.422;2023-02-13T07:28:56;3.90;99.90
5459;DHT22;2752;49.992;8.422;2023-02-13T07:31:24;3.90;99.90
5459;DHT22;2752;49.992;8.422;2023-02-13T07:33:51;3.90;99.90
5459;DHT22;2752;49.992;8.422;2023-02-13T07:36:17;3.90;99.90
5459;DHT22;2752;49.992;8.422;2023-02-13T07:38:44;3.90;99.90
5459;DHT22;2752;49.992;8.422;2023-02-13T07:41:10;4.00;99.90
5459;DHT22;2752;49.992;8.422;2023-02-13T07:43:37;4.00;99.90
5459;DHT22;2752;49.992;8.422;2023-02-13T07:46:05;4.10;99.90
5459;DHT22;2752;49.992;8.422;2023-02-13T07:48:34;4.10;99.90
5459;DHT22;2752;49.992;8.422;2023-02-13T07:51:01;4.20;99.90
5459;DHT22;2752;49.992;8.422;2023-02-13T07:53:28;4.20;99.90
5459;DHT22;2752;49.992;8.422;2023-02-13T07:55:55;4.30;99.90
5459;DHT22;2752;49.992;8.422;2023-02-13T07:58:22;4.30;99.90
5459;DHT22;2752;49.992;8.422;2023-02-13T08:00:49;4.40;99.90
5459;DHT22;2752;49.992;8.422;2023-02-13T08:03:16;4.50;99.90
5459;DHT22;2752;49.992;8.422;2023-02-13T08:05:46;4.50;99.90
5459;DHT22;2752;49.992;8.422;2023-02-13T08:08:13;4.60;99.90
5459;DHT22;2752;49.992;8.422;2023-02-13T08:10:40;4.70;99.90
5459;DHT22;2752;49.992;8.422;2023-02-13T08:13:24;4.90;99.90
5459;DHT22;2752;49.992;8.422;2023-02-13T08:15:51;4.90;99.90
5459;DHT22;2752;49.992;8.422;2023-02-13T08:18:18;5.00;99.00
5459;DHT22;2752;49.992;8.422;2023-02-13T08:20:46;5.00;98.30
5459;DHT22;2752;49.992;8.422;2023-02-13T08:23:12;5.10;99.00
5459;DHT22;2752;49.992;8.422;2023-02-13T08:25:39;5.20;96.80
5459;DHT22;2752;49.992;8.422;2023-02-13T08:28:06;5.30;95.70
5459;DHT22;2752;49.992;8.422;2023-02-13T08:30:32;5.30;94.20
5459;DHT22;2752;49.992;8.422;2023-02-13T08:32:59;5.30;93.40
5459;DHT22;2752;49.992;8.422;2023-02-13T08:35:26;5.40;93.30
5459;DHT22;2752;49.992;8.422;2023-02-13T08:37:55;5.50;92.80
5459;DHT22;2752;49.992;8.422;2023-02-13T08:40:22;5.60;90.30
5459;DHT22;2752;49.992;8.422;2023-02-13T08:42:48;5.60;89.30
5459;DHT22;2752;49.992;8.422;2023-02-13T08:45:15;5.60;88.00
5459;DHT22;2752;49.992;8.422;2023-02-13T08:47:42;5.80;87.60
5459;DHT22;2752;49.992;8.422;2023-02-13T08:50:09;5.70;85.70
5459;DHT22;2752;49.992;8.422;2023-02-13T08:52:36;5.80;84.10
5459;DHT22;2752;49.992;8.422;2023-02-13T08:55:04;5.90;82.20
5459;DHT22;2752;49.992;8.422;2023-02-13T08:57:31;5.90;77.70
5459;DHT22;2752;49.992;8.422;2023-02-13T08:59:58;5.90;75.00
5459;DHT22;2752;49.992;8.422;2023-02-13T09:02:24;6.00;73.90
5459;DHT22;2752;49.992;8.422;2023-02-13T09:04:51;6.10;70.70
5459;DHT22;2752;49.992;8.422;2023-02-13T09:07:17;6.20;68.40
5459;DHT22;2752;49.992;8.422;2023-02-13T09:09:44;6.20;65.30
5459;DHT22;2752;49.992;8.422;2023-02-13T09:12:12;6.20;64.80
5459;DHT22;2752;49.992;8.422;2023-02-13T09:14:38;6.30;63.40
5459;DHT22;2752;49.992;8.422;2023-02-13T09:17:05;6.40;62.50
5459;DHT22;2752;49.992;8.422;2023-02-13T09:19:32;6.30;59.70
5459;DHT22;2752;49.992;8.422;2023-02-13T09:21:58;6.40;60.10
5459;DHT22;2752;49.992;8.422;2023-02-13T09:24:25;6.50;60.40
5459;DHT22;2752;49.992;8.422;2023-02-13T09:26:52;6.50;57.70
5459;DHT22;2752;49.992;8.422;2023-02-13T09:29:20;6.60;57.70
5459;DHT22;2752;49.992;8.422;2023-02-13T09:31:46;6.80;55.50
5459;DHT22;2752;49.992;8.422;2023-02-13T09:34:13;6.90;53.30
5459;DHT22;2752;49.992;8.422;2023-02-13T09:36:40;7.00;50.30
5459;DHT22;2752;49.992;8.422;2023-02-13T09:39:06;7.10;49.70
5459;DHT22;2752;49.992;8.422;2023-02-13T09:41:35;7.10;48.50
5459;DHT22;2752;49.992;8.422;2023-02-13T09:44:06;7.20;48.00
5459;DHT22;2752;49.992;8.422;2023-02-13T09:46:39;7.30;44.50
5459;DHT22;2752;49.992;8.422;2023-02-13T09:49:10;7.40;42.60
5459;DHT22;2752;49.992;8.422;2023-02-13T09:51:40;7.50;40.70
5459;DHT22;2752;49.992;8.422;2023-02-13T09:54:12;7.30;38.90
5459;DHT22;2752;49.992;8.422;2023-02-13T09:56:49;7.70;40.20
5459;DHT22;2752;49.992;8.422;2023-02-13T09:59:31;7.80;35.50
5459;DHT22;2752;49.992;8.422;2023-02-13T10:02:13;7.90;35.80
5459;DHT22;2752;49.992;8.422;2023-02-13T10:04:49;8.00;33.40
5459;DHT22;2752;49.992;8.422;2023-02-13T10:07:24;8.10;31.60
5459;DHT22;2752;49.992;8.422;2023-02-13T10:09:56;8.20;30.70
5459;DHT22;2752;49.992;8.422;2023-02-13T10:12:35;8.30;24.50
5459;DHT22;2752;49.992;8.422;2023-02-13T10:15:16;8.40;26.60
5459;DHT22;2752;49.992;8.422;2023-02-13T10:17:53;8.40;23.00
5459;DHT22;2752;49.992;8.422;2023-02-13T10:20:27;8.50;19.30
5459;DHT22;2752;49.992;8.422;2023-02-13T10:22:59;8.60;20.10
5459;DHT22;2752;49.992;8.422;2023-02-13T10:25:32;8.70;18.80
5459;DHT22;2752;49.992;8.422;2023-02-13T10:28:06;8.70;14.00
5459;DHT22;2752;49.992;8.422;2023-02-13T10:30:46;8.80;12.50
5459;DHT22;2752;49.992;8.422;2023-02-13T10:33:18;8.80;10.80
5459;DHT22;2752;49.992;8.422;2023-02-13T10:35:51;8.90;7.30
5459;DHT22;2752;49.992;8.422;2023-02-13T10:38:21;9.10;3.50
5459;DHT22;2752;49.992;8.422;2023-02-13T10:41:04;9.20;1.00
5459;DHT22;2752;49.992;8.422;2023-02-13T10:43:37;9.30;1.00
5459;DHT22;2752;49.992;8.422;2023-02-13T10:46:11;9.40;1.00
5459;DHT22;2752;49.992;8.422;2023-02-13T10:49:02;9.50;1.00
5459;DHT22;2752;49.992;8.422;2023-02-13T10:51:38;9.50;1.00
5459;DHT22;2752;49.992;8.422;2023-02-13T10:54:26;9.50;1.00
5459;DHT22;2752;49.992;8.422;2023-02-13T10:57:03;9.60;1.00
5459;DHT22;2752;49.992;8.422;2023-02-13T10:59:43;9.70;1.00
5459;DHT22;2752;49.992;8.422;2023-02-13T11:02:21;9.60;1.00
5459;DHT22;2752;49.992;8.422;2023-02-13T11:04:52;9.70;1.00
5459;DHT22;2752;49.992;8.422;2023-02-13T11:07:23;9.80;1.00
5459;DHT22;2752;49.992;8.422;2023-02-13T11:09:55;9.90;1.00
5459;DHT22;2752;49.992;8.422;2023-02-13T11:12:26;9.90;1.00
5459;DHT22;2752;49.992;8.422;2023-02-13T11:14:55;10.10;1.00
5459;DHT22;2752;49.992;8.422;2023-02-13T11:17:22;10.30;1.00
5459;DHT22;2752;49.992;8.422;2023-02-13T11:19:53;10.10;1.00
5459;DHT22;2752;49.992;8.422;2023-02-13T11:22:30;10.20;1.00
5459;DHT22;2752;49.992;8.422;2023-02-13T11:24:59;10.30;1.00
5459;DHT22;2752;49.992;8.422;2023-02-13T11:27:31;10.30;1.00
5459;DHT22;2752;49.992;8.422;2023-02-13T11:30:00;10.40;1.00
5459;DHT22;2752;49.992;8.422;2023-02-13T11:32:28;10.60;1.00
5459;DHT22;2752;49.992;8.422;2023-02-13T11:34:57;10.60;1.00
5459;DHT22;2752;49.992;8.422;2023-02-13T11:37:31;10.60;1.00
5459;DHT22;2752;49.992;8.422;2023-02-13T11:39:59;10.70;1.00
5459;DHT22;2752;49.992;8.422;2023-02-13T11:42:28;10.70;1.00
5459;DHT22;2752;49.992;8.422;2023-02-13T11:44:58;10.70;1.00
5459;DHT22;2752;49.992;8.422;2023-02-13T11:47:37;10.80;1.00
5459;DHT22;2752;49.992;8.422;2023-02-13T11:50:21;10.90;1.00
5459;DHT22;2752;49.992;8.422;2023-02-13T11:52:54;11.00;1.00
5459;DHT22;2752;49.992;8.422;2023-02-13T11:55:28;11.10;1.00
5459;DHT22;2752;49.992;8.422;2023-02-13T11:57:56;11.20;1.00
5459;DHT22;2752;49.992;8.422;2023-02-13T12:00:32;11.30;1.00
5459;DHT22;2752;49.992;8.422;2023-02-13T12:03:04;11.40;1.00
5459;DHT22;2752;49.992;8.422;2023-02-13T12:06:01;11.50;1.00
5459;DHT22;2752;49.992;8.422;2023-02-13T12:08:29;11.40;1.00
5459;DHT22;2752;49.992;8.422;2023-02-13T12:10:57;11.40;1.00
5459;DHT22;2752;49.992;8.422;2023-02-13T12:13:28;11.60;1.00
5459;DHT22;2752;49.992;8.422;2023-02-13T12:15:59;11.70;1.00
5459;DHT22;2752;49.992;8.422;2023-02-13T12:18:30;11.90;1.00
5459;DHT22;2752;49.992;8.422;2023-02-13T12:21:03;11.90;1.00
5459;DHT22;2752;49.992;8.422;2023-02-13T12:23:38;11.90;1.00
5459;DHT22;2752;49.992;8.422;2023-02-13T12:26:16;12.10;1.00
5459;DHT22;2752;49.992;8.422;2023-02-13T12:29:03;12.20;1.00
5459;DHT22;2752;49.992;8.422;2023-02-13T12:31:52;12.30;1.00
5459;DHT22;2752;49.992;8.422;2023-02-13T12:34:51;12.50;1.00
5459;DHT22;2752;49.992;8.422;2023-02-13T12:37:33;12.50;1.00
5459;DHT22;2752;49.992;8.422;2023-02-13T12:40:22;12.10;1.00
5459;DHT22;2752;49.992;8.422;2023-02-13T12:42:55;12.20;1.00
5459;DHT22;2752;49.992;8.422;2023-02-13T12:45:33;12.30;1.00
5459;DHT22;2752;49.992;8.422;2023-02-13T12:48:10;12.30;1.00
5459;DHT22;2752;49.992;8.422;2023-02-13T12:50:53;12.30;1.00
5459;DHT22;2752;49.992;8.422;2023-02-13T12:53:36;12.40;1.00
5459;DHT22;2752;49.992;8.422;2023-02-13T12:56:16;12.40;1.00
5459;DHT22;2752;49.992;8.422;2023-02-13T12:58:59;12.40;1.00
5459;DHT22;2752;49.992;8.422;2023-02-13T13:01:55;12.40;1.00
5459;DHT22;2752;49.992;8.422;2023-02-13T13:04:35;12.40;1.00
5459;DHT22;2752;49.992;8.422;2023-02-13T13:07:18;12.40;1.00
5459;DHT22;2752;49.992;8.422;2023-02-13T13:09:59;12.70;1.00
5459;DHT22;2752;49.992;8.422;2023-02-13T13:12:39;12.90;1.00
5459;DHT22;2752;49.992;8.422;2023-02-13T13:15:15;13.00;1.00
5459;DHT22;2752;49.992;8.422;2023-02-13T13:17:53;13.10;1.00
5459;DHT22;2752;49.992;8.422;2023-02-13T13:21:07;13.10;1.00
5459;DHT22;2752;49.992;8.422;2023-02-13T13:23:40;13.10;1.00
5459;DHT22;2752;49.992;8.422;2023-02-13T13:26:17;13.20;1.00
5459;DHT22;2752;49.992;8.422;2023-02-13T13:28:49;13.30;1.00
5459;DHT22;2752;49.992;8.422;2023-02-13T13:31:18;13.30;1.00
5459;DHT22;2752;49.992;8.422;2023-02-13T13:33:47;13.30;1.00
5459;DHT22;2752;49.992;8.422;2023-02-13T13:36:20;13.30;1.00
5459;DHT22;2752;49.992;8.422;2023-02-13T13:38:55;13.40;1.00
5459;DHT22;2752;49.992;8.422;2023-02-13T13:41:31;13.60;1.00
5459;DHT22;2752;49.992;8.422;2023-02-13T13:44:14;13.60;1.00
5459;DHT22;2752;49.992;8.422;2023-02-13T13:46:49;13.60;1.00
5459;DHT22;2752;49.992;8.422;2023-02-13T13:49:28;13.60;1.00
5459;DHT22;2752;49.992;8.422;2023-02-13T13:52:09;13.70;1.00
5459;DHT22;2752;49.992;8.422;2023-02-13T13:54:36;13.80;1.00
5459;DHT22;2752;49.992;8.422;2023-02-13T13:57:06;13.90;1.00
5459;DHT22;2752;49.992;8.422;2023-02-13T13:59:58;13.90;1.00
5459;DHT22;2752;49.992;8.422;2023-02-13T14:02:36;14.00;1.00
5459;DHT22;2752;49.992;8.422;2023-02-13T14:05:17;13.80;1.00
5459;DHT22;2752;49.992;8.422;2023-02-13T14:07:47;13.90;1.00
5459;DHT22;2752;49.992;8.422;2023-02-13T14:13:28;14.00;1.00
5459;DHT22;2752;49.992;8.422;2023-02-13T14:15:55;14.00;1.00
5459;DHT22;2752;49.992;8.422;2023-02-13T14:18:23;14.10;1.00
5459;DHT22;2752;49.992;8.422;2023-02-13T14:20:51;14.20;1.00
5459;DHT22;2752;49.992;8.422;2023-02-13T14:26:30;13.90;1.00
5459;DHT22;2752;49.992;8.422;2023-02-13T14:29:22;13.80;1.00
5459;DHT22;2752;49.992;8.422;2023-02-13T14:32:12;13.80;1.00
5459;DHT22;2752;49.992;8.422;2023-02-13T14:34:40;13.70;1.00
5459;DHT22;2752;49.992;8.422;2023-02-13T14:37:19;13.70;1.00
5459;DHT22;2752;49.992;8.422;2023-02-13T14:40:31;13.80;1.00
5459;DHT22;2752;49.992;8.422;2023-02-13T14:43:21;13.80;1.00
5459;DHT22;2752;49.992;8.422;2023-02-13T14:45:53;13.70;1.00
5459;DHT22;2752;49.992;8.422;2023-02-13T14:48:24;13.90;1.00
5459;DHT22;2752;49.992;8.422;2023-02-13T14:50:54;13.80;1.00
5459;DHT22;2752;49.992;8.422;2023-02-13T14:53:25;13.70;1.00
5459;DHT22;2752;49.992;8.422;2023-02-13T14:55:57;13.70;1.00
5459;DHT22;2752;49.992;8.422;2023-02-13T14:58:28;13.60;1.00
5459;DHT22;2752;49.992;8.422;2023-02-13T15:01:01;13.50;1.00
5459;DHT22;2752;49.992;8.422;2023-02-13T15:03:33;13.40;1.00
5459;DHT22;2752;49.992;8.422;2023-02-13T15:06:05;13.40;1.00
5459;DHT22;2752;49.992;8.422;2023-02-13T15:08:35;13.50;1.00
5459;DHT22;2752;49.992;8.422;2023-02-13T15:11:03;13.60;1.00
5459;DHT22;2752;49.992;8.422;2023-02-13T15:13:50;13.60;1.00
5459;DHT22;2752;49.992;8.422;2023-02-13T15:16:18;13.50;1.00
5459;DHT22;2752;49.992;8.422;2023-02-13T15:18:48;13.40;1.00
5459;DHT22;2752;49.992;8.422;2023-02-13T15:21:19;13.40;1.00
5459;DHT22;2752;49.992;8.422;2023-02-13T15:23:49;13.40;1.00
5459;DHT22;2752;49.992;8.422;2023-02-13T15:26:19;13.50;1.00
5459;DHT22;2752;49.992;8.422;2023-02-13T15:28:57;13.50;1.00
5459;DHT22;2752;49.992;8.422;2023-02-13T15:31:30;13.30;1.00
5459;DHT22;2752;49.992;8.422;2023-02-13T15:33:58;13.20;1.00
5459;DHT22;2752;49.992;8.422;2023-02-13T15:36:33;13.10;1.00
5459;DHT22;2752;49.992;8.422;2023-02-13T15:39:01;13.10;1.00
5459;DHT22;2752;49.992;8.422;2023-02-13T15:41:33;13.20;1.00
5459;DHT22;2752;49.992;8.422;2023-02-13T15:44:01;13.10;1.00
5459;DHT22;2752;49.992;8.422;2023-02-13T15:46:30;13.00;1.00
5459;DHT22;2752;49.992;8.422;2023-02-13T15:48:59;12.90;1.00
5459;DHT22;2752;49.992;8.422;2023-02-13T15:51:27;12.70;1.00
5459;DHT22;2752;49.992;8.422;2023-02-13T15:53:56;12.60;1.00
5459;DHT22;2752;49.992;8.422;2023-02-13T15:56:23;12.60;1.00
5459;DHT22;2752;49.992;8.422;2023-02-13T15:58:51;12.50;1.00
5459;DHT22;2752;49.992;8.422;2023-02-13T16:01:18;12.40;1.00
5459;DHT22;2752;49.992;8.422;2023-02-13T16:03:48;12.30;1.00
5459;DHT22;2752;49.992;8.422;2023-02-13T16:06:16;12.20;1.00
5459;DHT22;2752;49.992;8.422;2023-02-13T16:08:48;12.10;1.00
5459;DHT22;2752;49.992;8.422;2023-02-13T16:11:19;12.10;1.00
5459;DHT22;2752;49.992;8.422;2023-02-13T16:14:04;12.00;1.00
5459;DHT22;2752;49.992;8.422;2023-02-13T16:16:35;12.00;1.00
5459;DHT22;2752;49.992;8.422;2023-02-13T16:19:20;11.80;1.00
5459;DHT22;2752;49.992;8.422;2023-02-13T16:21:49;11.70;1.00
5459;DHT22;2752;49.992;8.422;2023-02-13T16:24:17;11.60;1.00
5459;DHT22;2752;49.992;8.422;2023-02-13T16:26:44;11.50;1.00
5459;DHT22;2752;49.992;8.422;2023-02-13T16:29:17;11.40;1.00
5459;DHT22;2752;49.992;8.422;2023-02-13T16:31:44;11.30;1.00
5459;DHT22;2752;49.992;8.422;2023-02-13T16:34:23;11.30;1.00
5459;DHT22;2752;49.992;8.422;2023-02-13T16:36:50;11.20;1.00
5459;DHT22;2752;49.992;8.422;2023-02-13T16:39:19;11.10;1.00
5459;DHT22;2752;49.992;8.422;2023-02-13T16:41:46;11.00;1.00
5459;DHT22;2752;49.992;8.422;2023-02-13T16:44:21;10.90;1.00
5459;DHT22;2752;49.992;8.422;2023-02-13T16:46:51;10.80;1.00
5459;DHT22;2752;49.992;8.422;2023-02-13T16:49:22;10.80;1.00
5459;DHT22;2752;49.992;8.422;2023-02-13T16:51:53;10.70;1.00
5459;DHT22;2752;49.992;8.422;2023-02-13T16:54:29;10.60;1.00
5459;DHT22;2752;49.992;8.422;2023-02-13T16:56:59;10.50;1.00
5459;DHT22;2752;49.992;8.422;2023-02-13T16:59:51;10.40;1.00
5459;DHT22;2752;49.992;8.422;2023-02-13T17:02:21;10.40;1.00